createdAt,value
2023-08-29T00:04:50.231Z,2.58
2023-08-29T00:09:53.975Z,2.20
2023-08-29T00:14:57.595Z,2.30
2023-08-29T00:19:59.511Z,2.47
2023-08-29T00:25:01.315Z,2.65
2023-08-29T00:30:03.232Z,2.72
2023-08-29T00:35:05.355Z,3.10
2023-08-29T00:40:08.456Z,3.17
2023-08-29T00:45:10.969Z,3.17
2023-08-29T00:50:12.833Z,3.10
2023-08-29T00:55:16.199Z,3.00
2023-08-29T01:00:18.059Z,2.88
2023-08-29T01:05:21.851Z,2.65
2023-08-29T01:10:35.275Z,2.75
2023-08-29T01:15:37.962Z,2.47
2023-08-29T01:20:41.471Z,2.70
2023-08-29T01:26:14.759Z,3.13
2023-08-29T01:31:18.567Z,2.95
2023-08-29T01:36:23.195Z,3.90
2023-08-29T01:41:25.044Z,3.88
2023-08-29T01:46:26.912Z,4.32
2023-08-29T01:51:29.234Z,4.97
2023-08-29T01:56:32.608Z,4.75
2023-08-29T02:01:34.732Z,5.03
2023-08-29T02:06:36.593Z,5.13
2023-08-29T02:11:39.613Z,5.45
2023-08-29T02:16:41.862Z,6.05
2023-08-29T02:21:49.923Z,5.60
2023-08-29T02:26:51.824Z,6.43
2023-08-29T02:31:53.735Z,7.07
2023-08-29T02:36:55.592Z,6.68
2023-08-29T02:41:57.407Z,6.65
2023-08-29T02:47:02.104Z,7.97
2023-08-29T02:52:04.242Z,7.47
2023-08-29T02:57:06.113Z,8.00
2023-08-29T03:02:07.944Z,7.25
2023-08-29T03:07:09.764Z,7.40
2023-08-29T03:12:11.774Z,6.95
2023-08-29T03:17:13.725Z,6.63
2023-08-29T03:22:15.842Z,5.97
2023-08-29T03:27:17.718Z,5.07
2023-08-29T03:32:19.652Z,5.05
2023-08-29T03:37:22.056Z,5.32
2023-08-29T03:42:23.970Z,5.82
2023-08-29T03:47:25.980Z,5.60
2023-08-29T03:52:28.533Z,5.80
2023-08-29T03:57:31.778Z,6.28
2023-08-29T04:02:33.985Z,5.30
2023-08-29T04:07:35.816Z,5.15
2023-08-29T04:12:37.849Z,5.15
2023-08-29T04:17:40.583Z,5.45
2023-08-29T04:22:42.578Z,5.88
2023-08-29T04:27:45.338Z,4.50
2023-08-29T04:32:49.614Z,5.03
2023-08-29T04:37:51.577Z,4.43
2023-08-29T04:42:53.688Z,3.90
2023-08-29T04:47:55.794Z,4.97
2023-08-29T04:52:58.583Z,4.78
2023-08-29T04:58:01.266Z,4.43
2023-08-29T05:03:05.664Z,4.40
2023-08-29T05:08:08.013Z,4.15
2023-08-29T05:13:11.440Z,4.07
2023-08-29T05:18:14.821Z,4.40
2023-08-29T05:23:16.877Z,4.43
2023-08-29T05:28:18.794Z,4.88
2023-08-29T05:33:20.632Z,5.28
2023-08-29T05:38:26.718Z,5.60
2023-08-29T05:43:28.593Z,5.40
2023-08-29T05:48:30.504Z,5.78
2023-08-29T05:53:32.343Z,5.55
2023-08-29T05:58:34.220Z,4.38
2023-08-29T06:03:37.590Z,3.28
2023-08-29T06:08:41.499Z,2.03
2023-08-29T06:13:43.528Z,2.03
2023-08-29T06:18:45.349Z,1.90
2023-08-29T06:23:47.230Z,1.40
2023-08-29T06:28:49.130Z,1.48
2023-08-29T06:33:51.056Z,1.40
2023-08-29T06:38:52.900Z,1.30
2023-08-29T06:43:54.673Z,1.48
2023-08-29T06:48:56.514Z,1.20
2023-08-29T06:53:58.919Z,1.00
2023-08-29T06:59:01.052Z,1.10
2023-08-29T07:04:02.897Z,1.10
2023-08-29T07:09:05.278Z,1.70
2023-08-29T07:14:07.179Z,1.52
2023-08-29T07:19:08.963Z,1.40
2023-08-29T07:24:11.575Z,1.83
2023-08-29T07:29:14.474Z,2.00
2023-08-29T07:34:17.282Z,1.77
2023-08-29T07:39:20.331Z,1.70
2023-08-29T07:44:22.179Z,2.10
2023-08-29T07:49:24.040Z,1.83
2023-08-29T07:54:25.892Z,1.13
2023-08-29T07:59:27.887Z,0.98
2023-08-29T08:04:29.857Z,1.00
2023-08-29T08:09:31.725Z,1.20
2023-08-29T08:14:33.870Z,1.40
2023-08-29T08:19:35.786Z,1.08
2023-08-29T08:24:37.654Z,1.13
2023-08-29T08:29:39.443Z,1.23
2023-08-29T08:34:41.335Z,1.30
2023-08-29T08:39:43.206Z,1.60
2023-08-29T08:44:45.216Z,1.17
2023-08-29T08:49:47.344Z,1.25
2023-08-29T08:54:49.201Z,2.05
2023-08-29T08:59:51.073Z,1.70
2023-08-29T09:04:54.713Z,2.15
2023-08-29T09:10:11.139Z,1.85
2023-08-29T09:15:13.500Z,1.88
2023-08-29T09:20:15.544Z,2.25
2023-08-29T09:25:17.482Z,2.40
2023-08-29T09:30:20.602Z,2.10
2023-08-29T09:35:26.328Z,1.63
2023-08-29T09:40:39.745Z,1.60
2023-08-29T09:45:43.193Z,1.58
2023-08-29T09:50:46.816Z,2.13
2023-08-29T09:56:09.301Z,1.55
2023-08-29T10:01:13.613Z,1.38
2023-08-29T10:06:19.148Z,1.00
2023-08-29T10:11:21.490Z,1.25
2023-08-29T10:16:24.668Z,0.88
2023-08-29T10:21:29.251Z,0.90
2023-08-29T10:26:32.460Z,1.13
2023-08-29T10:31:35.515Z,0.82
2023-08-29T10:36:40.602Z,1.10
2023-08-29T10:41:50.063Z,0.95
2023-08-29T10:46:53.383Z,1.00
2023-08-29T10:52:11.216Z,1.08
2023-08-29T10:57:32.242Z,1.08
2023-08-29T11:02:34.271Z,0.90
2023-08-29T11:07:36.278Z,0.77
2023-08-29T11:12:38.326Z,0.80
2023-08-29T11:17:40.349Z,1.15
2023-08-29T11:22:49.114Z,0.98
2023-08-29T11:27:50.951Z,0.70
2023-08-29T11:32:53.330Z,0.65
2023-08-29T11:37:55.517Z,0.65
2023-08-29T11:43:21.589Z,0.60
2023-08-29T11:48:25.046Z,0.90
2023-08-29T11:53:33.557Z,0.60
2023-08-29T11:58:36.654Z,0.80
2023-08-29T12:03:39.886Z,0.63
2023-08-29T12:08:44.168Z,0.70
2023-08-29T12:14:01.154Z,1.00
2023-08-29T12:19:15.008Z,0.57
2023-08-29T12:24:16.894Z,0.77
2023-08-29T12:29:19.923Z,1.05
2023-08-29T12:34:21.718Z,1.05
2023-08-29T12:39:23.511Z,0.77
2023-08-29T12:44:25.311Z,1.30
2023-08-29T12:49:27.322Z,1.27
2023-08-29T12:54:31.639Z,1.20
2023-08-29T12:59:33.452Z,1.00
2023-08-29T13:04:35.364Z,1.20
2023-08-29T13:09:39.414Z,1.25
2023-08-29T13:14:41.270Z,0.98
2023-08-29T13:19:43.369Z,0.93
2023-08-29T13:24:45.158Z,0.82
2023-08-29T13:29:46.956Z,0.90
2023-08-29T13:34:48.754Z,0.82
2023-08-29T13:39:57.436Z,0.90
2023-08-29T13:44:59.704Z,1.02
2023-08-29T13:50:01.674Z,0.82
2023-08-29T13:55:04.294Z,0.70
2023-08-29T14:00:07.021Z,0.40
2023-08-29T14:05:15.130Z,0.60
2023-08-29T14:10:17.982Z,0.90
2023-08-29T14:15:20.963Z,0.90
2023-08-29T14:20:22.804Z,0.90
2023-08-29T14:25:24.718Z,1.05
2023-08-29T14:30:26.715Z,1.10
2023-08-29T14:35:29.074Z,1.20
2023-08-29T14:40:30.962Z,1.17
2023-08-29T14:45:33.952Z,1.10
2023-08-29T14:50:36.164Z,0.98
2023-08-29T14:55:38.004Z,0.98
2023-08-29T15:00:42.430Z,1.30
2023-08-29T15:05:44.320Z,1.40
2023-08-29T15:10:46.239Z,1.42
2023-08-29T15:15:48.567Z,1.10
2023-08-29T15:20:50.394Z,1.15
2023-08-29T15:25:52.858Z,1.05
2023-08-29T15:30:54.677Z,1.17
2023-08-29T15:35:57.018Z,1.15
2023-08-29T15:40:59.236Z,1.65
2023-08-29T15:46:01.163Z,1.17
2023-08-29T15:51:03.057Z,1.00
2023-08-29T15:56:06.292Z,1.35
2023-08-29T16:01:08.889Z,1.65
2023-08-29T16:06:10.841Z,1.83
2023-08-29T16:11:13.644Z,1.60
2023-08-29T16:16:15.495Z,1.58
2023-08-29T16:21:17.902Z,2.00
2023-08-29T16:26:22.708Z,1.63
2023-08-29T16:31:24.589Z,1.33
2023-08-29T16:36:26.403Z,1.52
2023-08-29T16:41:28.217Z,1.40
2023-08-29T16:46:30.170Z,1.58
2023-08-29T16:51:32.145Z,1.65
2023-08-29T16:56:33.966Z,2.00
2023-08-29T17:01:35.913Z,1.83
2023-08-29T17:06:37.808Z,1.80
2023-08-29T17:11:39.809Z,1.65
2023-08-29T17:16:41.725Z,1.75
2023-08-29T17:21:43.558Z,1.83
2023-08-29T17:26:45.437Z,2.05
2023-08-29T17:31:47.348Z,1.85
2023-08-29T17:36:49.582Z,1.80
2023-08-29T17:41:51.465Z,1.70
2023-08-29T17:46:53.595Z,2.28
2023-08-29T17:51:55.431Z,1.60
2023-08-29T17:56:57.237Z,1.63
2023-08-29T18:01:59.101Z,1.73
2023-08-29T18:07:01.070Z,1.73
2023-08-29T18:12:02.974Z,1.67
2023-08-29T18:17:04.886Z,1.73
2023-08-29T18:22:06.749Z,1.70
2023-08-29T18:27:09.852Z,2.10
2023-08-29T18:32:11.804Z,2.00
2023-08-29T18:37:13.687Z,2.00
2023-08-29T18:42:15.677Z,2.00
2023-08-29T18:47:17.535Z,2.20
2023-08-29T18:52:19.492Z,2.35
2023-08-29T18:57:21.321Z,2.60
2023-08-29T19:02:23.250Z,2.55
2023-08-29T19:07:25.181Z,2.47
2023-08-29T19:12:27.025Z,3.03
2023-08-29T19:17:29.270Z,3.63
2023-08-29T19:22:31.297Z,3.33
2023-08-29T19:27:33.136Z,3.50
2023-08-29T19:32:35.385Z,3.85
2023-08-29T19:37:37.353Z,2.80
2023-08-29T19:42:39.346Z,2.65
2023-08-29T19:47:42.917Z,2.60
2023-08-29T19:52:48.268Z,2.15
2023-08-29T19:57:50.692Z,3.00
2023-08-29T20:02:52.547Z,2.50
2023-08-29T20:07:55.791Z,2.25
2023-08-29T20:12:59.736Z,2.53
2023-08-29T20:18:01.599Z,2.90
2023-08-29T20:23:04.622Z,2.08
2023-08-29T20:28:09.119Z,2.40
2023-08-29T20:33:11.385Z,3.58
2023-08-29T20:38:15.885Z,2.67
2023-08-29T20:43:18.549Z,3.03
2023-08-29T20:48:20.701Z,2.58
2023-08-29T20:53:22.587Z,3.35
2023-08-29T20:58:25.751Z,3.20
2023-08-29T21:03:34.113Z,2.60
2023-08-29T21:08:36.473Z,3.25
2023-08-29T21:13:41.112Z,1.83
2023-08-29T21:18:43.173Z,1.90
2023-08-29T21:23:46.796Z,1.70
2023-08-29T21:28:50.101Z,1.88
2023-08-29T21:33:51.963Z,1.90
2023-08-29T21:38:53.782Z,1.60
2023-08-29T21:43:55.851Z,2.10
2023-08-29T21:48:57.662Z,2.00
2023-08-29T21:53:59.547Z,1.80
2023-08-29T21:59:01.371Z,1.70
2023-08-29T22:04:03.249Z,2.13
2023-08-29T22:09:05.093Z,1.67
2023-08-29T22:14:06.936Z,1.88
2023-08-29T22:19:09.006Z,2.90
2023-08-29T22:24:11.282Z,2.58
2023-08-29T22:29:13.185Z,2.42
2023-08-29T22:34:15.011Z,2.25
2023-08-29T22:39:17.004Z,1.83
2023-08-29T22:44:18.893Z,2.40
2023-08-29T22:49:22.641Z,1.80
2023-08-29T22:54:25.241Z,2.25
2023-08-29T22:59:28.010Z,1.92
2023-08-29T23:04:29.958Z,2.13
2023-08-29T23:09:35.570Z,1.90
2023-08-29T23:14:37.382Z,1.40
2023-08-29T23:19:39.227Z,1.60
2023-08-29T23:24:41.056Z,1.70
2023-08-29T23:29:43.730Z,1.80
2023-08-29T23:34:46.401Z,2.00
2023-08-29T23:39:48.790Z,1.77
2023-08-29T23:44:50.740Z,1.45
2023-08-29T23:49:52.622Z,1.50
2023-08-29T23:54:54.436Z,1.30
2023-08-29T23:59:56.237Z,1.40
